createdAt,value
2022-11-27T00:03:24.374Z,1.60
2022-11-27T00:08:27.711Z,1.50
2022-11-27T00:13:31.156Z,1.50
2022-11-27T00:18:35.895Z,1.40
2022-11-27T00:23:39.252Z,1.40
2022-11-27T00:28:42.645Z,1.60
2022-11-27T00:33:47.495Z,1.80
2022-11-27T00:38:50.895Z,1.70
2022-11-27T00:43:55.012Z,1.70
2022-11-27T00:49:00.596Z,1.70
2022-11-27T00:54:04.582Z,1.60
2022-11-27T00:59:08.853Z,1.50
2022-11-27T01:04:15.739Z,1.10
2022-11-27T01:09:19.055Z,1.50
2022-11-27T01:14:22.373Z,1.50
2022-11-27T01:19:27.259Z,1.50
2022-11-27T01:24:30.545Z,1.40
2022-11-27T01:29:33.817Z,1.40
2022-11-27T01:34:38.889Z,1.50
2022-11-27T01:39:42.616Z,1.70
2022-11-27T01:44:55.502Z,1.40
2022-11-27T01:50:14.886Z,1.50
2022-11-27T01:55:23.147Z,1.60
2022-11-27T02:00:27.194Z,1.70
2022-11-27T02:10:48.142Z,2.10
2022-11-27T02:15:58.979Z,2.00
2022-11-27T02:21:08.762Z,2.10
2022-11-27T02:26:53.574Z,2.00
2022-11-27T02:32:03.719Z,2.10
2022-11-27T02:37:14.063Z,2.20
2022-11-27T02:42:22.149Z,2.20
2022-11-27T02:47:29.018Z,2.20
2022-11-27T02:52:33.938Z,2.20
2022-11-27T02:57:40.260Z,2.30
2022-11-27T03:03:07.383Z,2.30
2022-11-27T03:08:19.545Z,2.20
2022-11-27T03:18:38.262Z,2.20
2022-11-27T03:23:41.581Z,2.30
2022-11-27T03:28:47.125Z,2.20
2022-11-27T03:33:52.449Z,2.20
2022-11-27T03:38:56.628Z,2.20
2022-11-27T03:44:08.292Z,2.70
2022-11-27T03:49:21.363Z,2.40
2022-11-27T03:54:36.432Z,2.50
2022-11-27T03:59:44.270Z,2.50
2022-11-27T04:04:49.252Z,2.60
2022-11-27T04:09:52.519Z,2.80
2022-11-27T04:14:55.752Z,2.80
2022-11-27T04:20:00.479Z,2.70
2022-11-27T04:25:03.995Z,2.70
2022-11-27T04:30:08.735Z,2.50
2022-11-27T04:35:13.481Z,2.60
2022-11-27T04:40:16.918Z,2.40
2022-11-27T04:45:20.434Z,2.30
2022-11-27T04:50:25.090Z,2.20
2022-11-27T04:55:28.360Z,2.30
2022-11-27T05:00:31.662Z,2.50
2022-11-27T05:05:36.379Z,2.90
2022-11-27T05:10:39.637Z,2.80
2022-11-27T05:15:42.996Z,2.70
2022-11-27T05:20:47.661Z,2.90
2022-11-27T05:25:50.896Z,2.90
2022-11-27T05:30:54.287Z,2.90
2022-11-27T05:35:58.987Z,1.40
2022-11-27T05:41:02.305Z,3.00
2022-11-27T05:46:07.113Z,3.00
2022-11-27T05:51:12.072Z,3.10
2022-11-27T05:56:17.208Z,3.00
2022-11-27T06:01:21.251Z,3.10
2022-11-27T06:06:25.894Z,3.20
2022-11-27T06:11:29.192Z,3.20
2022-11-27T06:16:32.486Z,3.20
2022-11-27T06:21:37.169Z,3.20
2022-11-27T06:26:40.713Z,3.30
2022-11-27T06:31:44.063Z,3.20
2022-11-27T06:36:49.456Z,3.20
2022-11-27T06:41:52.782Z,3.30
2022-11-27T06:46:56.041Z,3.40
2022-11-27T06:52:01.107Z,3.20
2022-11-27T06:57:05.545Z,3.30
2022-11-27T07:02:14.614Z,3.30
2022-11-27T07:07:19.332Z,3.40
2022-11-27T07:12:22.634Z,3.30
2022-11-27T07:17:25.893Z,3.40
2022-11-27T07:22:33.064Z,3.30
2022-11-27T07:27:36.329Z,3.50
2022-11-27T07:32:39.573Z,3.30
2022-11-27T07:37:44.205Z,3.40
2022-11-27T07:42:47.621Z,3.30
2022-11-27T07:47:53.732Z,3.70
2022-11-27T07:52:58.408Z,3.70
2022-11-27T07:58:01.657Z,3.40
2022-11-27T08:03:05.051Z,3.90
2022-11-27T08:08:09.682Z,3.40
2022-11-27T08:13:12.941Z,3.30
2022-11-27T08:18:16.207Z,3.20
2022-11-27T08:23:20.854Z,3.40
2022-11-27T08:28:24.129Z,3.50
2022-11-27T08:33:27.597Z,3.60
2022-11-27T08:38:32.665Z,3.60
2022-11-27T08:43:36.679Z,3.60
2022-11-27T08:48:39.972Z,3.40
2022-11-27T08:53:45.845Z,3.40
2022-11-27T08:58:49.469Z,3.80
2022-11-27T09:03:53.672Z,3.70
2022-11-27T09:08:59.752Z,3.60
2022-11-27T09:14:03.979Z,3.80
2022-11-27T09:19:07.682Z,3.90
2022-11-27T09:24:12.378Z,4.30
2022-11-27T09:29:15.889Z,4.00
2022-11-27T09:34:19.308Z,4.20
2022-11-27T09:39:26.425Z,4.30
2022-11-27T09:44:35.752Z,4.30
2022-11-27T09:49:45.395Z,4.20
2022-11-27T09:54:56.634Z,7.10
2022-11-27T10:00:05.060Z,4.30
2022-11-27T10:05:16.453Z,3.70
2022-11-27T10:10:37.496Z,3.80
2022-11-27T10:15:46.755Z,3.60
2022-11-27T10:20:53.608Z,3.60
2022-11-27T10:26:01.147Z,3.70
2022-11-27T10:36:16.261Z,3.80
2022-11-27T10:41:48.048Z,4.00
2022-11-27T10:46:52.381Z,4.20
2022-11-27T10:51:55.718Z,4.30
2022-11-27T10:57:23.155Z,4.10
2022-11-27T11:02:29.864Z,4.00
2022-11-27T11:07:33.424Z,4.30
2022-11-27T11:12:38.240Z,4.40
2022-11-27T11:17:41.733Z,4.20
2022-11-27T11:22:47.584Z,4.10
2022-11-27T11:27:53.508Z,4.40
2022-11-27T11:33:03.287Z,4.60
2022-11-27T11:38:16.002Z,4.20
2022-11-27T11:43:28.131Z,4.00
2022-11-27T11:48:31.669Z,3.90
2022-11-27T11:53:38.561Z,4.30
2022-11-27T11:58:57.119Z,8.50
2022-11-27T12:04:14.459Z,4.00
2022-11-27T12:09:29.170Z,3.80
2022-11-27T12:14:44.966Z,3.90
2022-11-27T12:20:03.322Z,4.00
2022-11-27T12:25:20.791Z,4.00
2022-11-27T12:30:30.508Z,4.00
2022-11-27T12:35:35.593Z,4.20
2022-11-27T12:41:03.606Z,3.90
2022-11-27T12:46:16.424Z,4.00
2022-11-27T12:51:25.354Z,4.20
2022-11-27T12:56:34.146Z,4.40
2022-11-27T13:01:44.621Z,4.40
2022-11-27T13:06:56.292Z,4.10
2022-11-27T13:12:01.142Z,4.30
2022-11-27T13:17:10.043Z,4.30
2022-11-27T13:22:15.829Z,4.30
2022-11-27T13:27:23.699Z,4.50
2022-11-27T13:32:31.471Z,4.70
2022-11-27T13:37:37.524Z,4.70
2022-11-27T13:42:45.654Z,4.70
2022-11-27T13:47:51.823Z,4.50
2022-11-27T13:52:59.988Z,4.40
2022-11-27T13:58:04.616Z,4.40
2022-11-27T14:03:22.261Z,4.20
2022-11-27T14:08:28.103Z,4.40
2022-11-27T14:13:39.285Z,4.30
2022-11-27T14:23:55.168Z,8.00
2022-11-27T14:28:59.585Z,3.80
2022-11-27T14:39:31.848Z,3.90
2022-11-27T14:44:36.763Z,4.00
2022-11-27T14:49:42.818Z,3.80
2022-11-27T14:54:46.726Z,3.80
2022-11-27T14:59:50.063Z,4.20
2022-11-27T15:05:03.701Z,3.80
2022-11-27T15:10:31.764Z,3.80
2022-11-27T15:15:40.518Z,3.70
2022-11-27T15:20:47.143Z,3.80
2022-11-27T15:25:53.865Z,3.70
2022-11-27T15:30:57.998Z,3.60
2022-11-27T15:41:23.967Z,3.70
2022-11-27T15:46:30.467Z,3.60
2022-11-27T15:51:35.112Z,3.60
2022-11-27T15:56:38.385Z,3.80
2022-11-27T16:01:42.174Z,3.70
2022-11-27T16:06:46.959Z,3.70
2022-11-27T16:11:50.393Z,3.70
2022-11-27T16:16:53.721Z,3.60
2022-11-27T16:21:58.448Z,3.60
2022-11-27T16:27:01.795Z,3.60
2022-11-27T16:32:05.470Z,3.60
2022-11-27T16:37:16.999Z,3.60
2022-11-27T16:42:21.645Z,3.50
2022-11-27T16:47:30.568Z,3.40
2022-11-27T16:52:38.481Z,3.30
2022-11-27T16:57:42.560Z,3.30
2022-11-27T17:02:46.099Z,3.50
2022-11-27T17:07:50.867Z,3.70
2022-11-27T17:12:54.186Z,3.80
2022-11-27T17:17:59.152Z,3.70
2022-11-27T17:23:04.307Z,4.40
2022-11-27T17:28:07.771Z,3.70
2022-11-27T17:33:11.185Z,3.70
2022-11-27T17:38:15.865Z,3.60
2022-11-27T17:43:19.177Z,3.60
2022-11-27T17:48:22.432Z,3.50
2022-11-27T17:53:27.685Z,3.30
2022-11-27T17:58:32.040Z,3.50
2022-11-27T18:03:35.751Z,3.60
2022-11-27T18:08:41.685Z,3.40
2022-11-27T18:13:45.139Z,3.50
2022-11-27T18:18:48.884Z,3.50
2022-11-27T18:24:22.040Z,3.40
2022-11-27T18:29:18.645Z,3.40
2022-11-27T18:34:21.976Z,3.40
2022-11-27T18:39:26.698Z,3.40
2022-11-27T18:44:29.980Z,3.40
2022-11-27T18:49:34.693Z,3.80
2022-11-27T18:54:39.517Z,3.40
2022-11-27T18:59:44.905Z,3.40
2022-11-27T19:04:48.534Z,3.40
2022-11-27T19:09:53.190Z,3.40
2022-11-27T19:14:57.094Z,3.40
2022-11-27T19:20:03.032Z,3.30
2022-11-27T19:25:09.980Z,3.40
2022-11-27T19:30:14.315Z,3.40
2022-11-27T19:35:22.147Z,3.40
2022-11-27T19:40:28.962Z,3.40
2022-11-27T19:45:33.718Z,3.50
2022-11-27T19:50:37.718Z,3.80
2022-11-27T19:55:42.801Z,3.70
2022-11-27T20:00:46.172Z,3.80
2022-11-27T20:05:49.827Z,3.80
2022-11-27T20:10:54.508Z,3.80
2022-11-27T20:15:58.911Z,3.70
2022-11-27T20:26:13.246Z,3.80
2022-11-27T20:31:19.953Z,3.80
2022-11-27T20:36:24.913Z,3.70
2022-11-27T20:41:30.928Z,3.80
2022-11-27T20:46:35.401Z,3.70
2022-11-27T20:51:39.858Z,3.70
2022-11-27T20:56:46.693Z,3.70
2022-11-27T21:01:50.645Z,3.70
2022-11-27T21:06:54.770Z,3.70
2022-11-27T21:11:59.572Z,3.60
2022-11-27T21:17:04.984Z,3.70
2022-11-27T21:22:10.633Z,3.70
2022-11-27T21:27:15.296Z,3.70
2022-11-27T21:32:22.570Z,3.70
2022-11-27T21:37:26.074Z,3.60
2022-11-27T21:42:32.715Z,3.60
2022-11-27T21:47:36.469Z,3.70
2022-11-27T21:52:40.154Z,3.70
2022-11-27T21:57:45.068Z,3.70
2022-11-27T22:02:49.091Z,3.60
2022-11-27T22:07:52.662Z,3.50
2022-11-27T22:12:57.329Z,3.40
2022-11-27T22:18:00.579Z,3.30
2022-11-27T22:23:05.122Z,3.90
2022-11-27T22:28:09.964Z,3.40
2022-11-27T22:33:13.755Z,3.40
2022-11-27T22:38:17.255Z,3.30
2022-11-27T22:43:21.956Z,3.40
2022-11-27T22:48:25.373Z,3.40
2022-11-27T22:58:38.359Z,3.30
2022-11-27T23:03:44.700Z,3.30
2022-11-27T23:08:49.227Z,3.20
2022-11-27T23:13:57.139Z,3.20
2022-11-27T23:19:00.521Z,3.20
2022-11-27T23:24:03.972Z,3.20
2022-11-27T23:34:16.217Z,3.10
2022-11-27T23:39:19.510Z,3.10
2022-11-27T23:44:24.132Z,3.50
2022-11-27T23:49:27.529Z,3.10
2022-11-27T23:54:30.990Z,3.10
2022-11-27T23:59:35.615Z,3.20
